createdAt,value
2022-09-06T04:01:42.612Z,8.35
2022-09-06T04:05:46.333Z,9.48
2022-09-06T04:09:49.120Z,8.20
2022-09-06T04:13:51.899Z,8.32
2022-09-06T04:17:55.909Z,9.35
2022-09-06T04:21:58.601Z,8.70
2022-09-06T04:26:01.618Z,9.27
2022-09-06T04:30:05.316Z,8.90
2022-09-06T04:34:09.314Z,9.45
2022-09-06T04:38:12.115Z,9.07
2022-09-06T04:42:15.698Z,9.57
2022-09-06T04:46:21.976Z,8.70
2022-09-06T04:50:26.315Z,8.85
2022-09-06T04:54:43.414Z,9.48
2022-09-06T04:58:47.489Z,9.27
2022-09-06T05:02:56.328Z,8.77
2022-09-06T05:07:05.098Z,8.80
2022-09-06T05:11:09.193Z,10.00
2022-09-06T05:15:12.331Z,9.43
2022-09-06T05:19:15.718Z,8.85
2022-09-06T05:23:19.806Z,9.98
2022-09-06T05:27:22.474Z,9.65
2022-09-06T05:31:28.544Z,9.45
2022-09-06T05:35:31.272Z,9.38
2022-09-06T05:39:35.381Z,9.43
2022-09-06T05:43:38.077Z,9.70
2022-09-06T05:47:41.148Z,9.18
2022-09-06T05:51:43.842Z,9.50
2022-09-06T05:55:47.918Z,9.68
2022-09-06T05:59:50.830Z,10.05
2022-09-06T06:03:55.357Z,9.82
2022-09-06T06:07:59.706Z,10.05
2022-09-06T06:12:04.213Z,9.55
2022-09-06T06:16:07.666Z,9.48
2022-09-06T06:20:10.905Z,9.88
2022-09-06T06:24:13.655Z,9.77
2022-09-06T06:28:17.667Z,10.02
2022-09-06T06:32:20.347Z,9.50
2022-09-06T06:36:24.799Z,9.30
2022-09-06T06:40:27.649Z,9.38
2022-09-06T06:44:31.697Z,9.02
2022-09-06T06:48:34.476Z,8.18
2022-09-06T06:52:37.158Z,8.60
2022-09-06T06:56:42.161Z,8.43
2022-09-06T07:00:46.927Z,8.52
2022-09-06T07:04:49.663Z,8.30
2022-09-06T07:08:52.358Z,8.55
2022-09-06T07:12:55.571Z,8.23
2022-09-06T07:25:25.692Z,6.93
2022-09-06T07:29:28.416Z,6.30
2022-09-06T07:33:32.482Z,5.90
2022-09-06T07:37:35.435Z,5.90
2022-09-06T07:41:38.139Z,6.00
2022-09-06T07:45:40.812Z,5.40
2022-09-06T07:54:29.836Z,4.07
2022-09-06T07:58:34.698Z,4.22
2022-09-06T08:02:37.394Z,4.70
2022-09-06T08:11:07.546Z,4.47
2022-09-06T08:15:11.070Z,4.28
2022-09-06T08:19:13.771Z,4.03
2022-09-06T08:23:17.843Z,4.70
2022-09-06T08:27:20.502Z,4.30
2022-09-06T08:31:23.476Z,4.03
2022-09-06T08:35:26.190Z,4.05
2022-09-06T08:39:30.264Z,3.75
2022-09-06T08:43:33.973Z,3.75
2022-09-06T08:47:37.662Z,3.78
2022-09-06T08:52:05.897Z,3.67
2022-09-06T08:56:16.889Z,4.03
2022-09-06T09:00:21.259Z,3.97
2022-09-06T09:04:27.545Z,4.47
2022-09-06T09:08:38.064Z,4.10
2022-09-06T09:12:46.775Z,4.25
2022-09-06T09:16:51.772Z,4.30
2022-09-06T09:20:54.525Z,4.70
2022-09-06T09:25:03.070Z,4.63
2022-09-06T09:29:10.032Z,4.68
2022-09-06T09:33:23.575Z,5.32
2022-09-06T09:41:51.694Z,4.60
2022-09-06T09:46:30.729Z,4.80
2022-09-06T09:50:35.682Z,4.68
2022-09-06T09:54:40.443Z,4.85
2022-09-06T09:58:43.851Z,4.50
2022-09-06T10:02:47.988Z,4.40
2022-09-06T10:11:14.904Z,4.40
2022-09-06T10:15:34.477Z,4.40
2022-09-06T10:19:46.328Z,4.78
2022-09-06T10:24:28.098Z,4.63
2022-09-06T10:28:34.453Z,4.55
2022-09-06T10:32:42.641Z,4.40
2022-09-06T10:36:55.147Z,4.18
2022-09-06T10:41:10.413Z,4.00
2022-09-06T10:45:22.235Z,4.20
2022-09-06T10:49:25.100Z,4.45
2022-09-06T10:53:37.327Z,4.15
2022-09-06T11:02:19.562Z,4.15
2022-09-06T11:06:28.770Z,4.10
2022-09-06T11:10:35.346Z,3.97
2022-09-06T11:14:40.465Z,3.90
2022-09-06T11:18:49.161Z,4.03
2022-09-06T11:23:18.338Z,3.75
2022-09-06T11:27:34.903Z,4.20
2022-09-06T11:36:21.496Z,4.55
2022-09-06T11:40:28.476Z,4.15
2022-09-06T11:44:55.548Z,3.63
2022-09-06T11:49:03.401Z,3.63
2022-09-06T11:53:17.434Z,4.15
2022-09-06T11:57:23.570Z,3.53
2022-09-06T12:01:41.971Z,3.38
2022-09-06T12:06:16.113Z,3.10
2022-09-06T12:10:58.104Z,3.58
2022-09-06T12:15:29.023Z,3.20
2022-09-06T12:19:47.681Z,3.67
2022-09-06T12:23:50.332Z,4.18
2022-09-06T12:27:55.342Z,3.75
2022-09-06T12:32:01.569Z,3.70
2022-09-06T12:36:17.752Z,4.03
2022-09-06T12:40:21.723Z,3.75
2022-09-06T12:44:32.801Z,3.63
2022-09-06T12:48:41.234Z,4.10
2022-09-06T12:52:50.556Z,3.88
2022-09-06T12:56:54.403Z,4.18
2022-09-06T13:01:04.515Z,4.43
2022-09-06T13:05:11.112Z,4.43
2022-09-06T13:09:18.831Z,4.15
2022-09-06T13:13:24.194Z,4.70
2022-09-06T13:17:29.835Z,4.70
2022-09-06T13:21:34.196Z,4.35
2022-09-06T13:25:48.731Z,4.75
2022-09-06T13:29:57.782Z,4.20
2022-09-06T13:34:01.030Z,4.10
2022-09-06T13:38:30.739Z,4.18
2022-09-06T13:42:36.669Z,3.50
2022-09-06T13:46:39.622Z,3.80
2022-09-06T13:50:42.725Z,3.83
2022-09-06T13:54:45.966Z,3.65
2022-09-06T13:58:50.013Z,3.50
2022-09-06T14:02:55.419Z,3.78
2022-09-06T14:06:59.392Z,3.72
2022-09-06T14:11:05.031Z,3.60
2022-09-06T14:15:09.941Z,3.53
2022-09-06T14:19:13.138Z,3.80
2022-09-06T14:23:16.164Z,3.80
2022-09-06T14:27:20.206Z,3.85
2022-09-06T14:31:26.421Z,3.58
2022-09-06T14:35:29.860Z,4.10
2022-09-06T14:39:32.864Z,3.53
2022-09-06T14:43:36.619Z,3.88
2022-09-06T14:47:40.659Z,3.42
2022-09-06T14:51:43.416Z,3.40
2022-09-06T14:55:46.203Z,3.42
2022-09-06T14:59:48.938Z,3.63
2022-09-06T15:03:55.844Z,3.17
2022-09-06T15:07:58.557Z,2.90
2022-09-06T15:12:01.571Z,3.13
2022-09-06T15:16:04.637Z,3.30
2022-09-06T15:20:09.487Z,3.20
2022-09-06T15:24:12.502Z,3.80
2022-09-06T15:28:16.133Z,3.25
2022-09-06T15:32:18.820Z,2.95
2022-09-06T15:36:22.957Z,3.17
2022-09-06T15:40:27.795Z,3.28
2022-09-06T15:44:30.555Z,3.10
2022-09-06T15:48:41.874Z,3.10
2022-09-06T15:52:45.974Z,3.15
2022-09-06T15:56:49.215Z,3.10
2022-09-06T16:01:02.070Z,2.90
2022-09-06T16:05:05.867Z,2.92
2022-09-06T16:09:14.080Z,3.17
2022-09-06T16:13:17.641Z,2.63
2022-09-06T16:17:22.360Z,2.58
2022-09-06T16:21:28.234Z,3.90
2022-09-06T16:25:32.629Z,2.78
2022-09-06T16:29:35.410Z,2.80
2022-09-06T16:33:40.192Z,2.70
2022-09-06T16:37:43.045Z,2.80
2022-09-06T16:41:48.039Z,2.97
2022-09-06T16:45:57.444Z,2.63
2022-09-06T16:50:00.582Z,2.90
2022-09-06T16:54:04.148Z,2.45
2022-09-06T16:58:08.308Z,2.60
2022-09-06T17:02:11.147Z,2.83
2022-09-06T17:06:14.651Z,2.83
2022-09-06T17:10:21.047Z,2.55
2022-09-06T17:14:25.479Z,2.78
2022-09-06T17:18:28.292Z,2.67
2022-09-06T17:22:31.021Z,2.88
2022-09-06T17:26:35.637Z,2.60
2022-09-06T17:30:46.517Z,2.47
2022-09-06T17:34:49.268Z,2.80
2022-09-06T17:38:53.844Z,2.50
2022-09-06T17:42:56.803Z,2.70
2022-09-06T17:47:13.905Z,2.80
2022-09-06T17:51:17.990Z,2.80
2022-09-06T17:55:20.816Z,2.80
2022-09-06T17:59:23.899Z,2.85
2022-09-06T18:03:28.155Z,2.92
2022-09-06T18:07:31.030Z,3.05
2022-09-06T18:11:34.974Z,2.92
2022-09-06T18:16:04.346Z,2.95
2022-09-06T18:20:10.477Z,2.78
2022-09-06T18:24:14.814Z,3.00
2022-09-06T18:28:17.655Z,2.97
2022-09-06T18:32:21.840Z,3.10
2022-09-06T18:36:31.188Z,2.72
2022-09-06T18:40:34.659Z,2.88
2022-09-06T18:44:37.525Z,2.85
2022-09-06T18:48:41.926Z,2.80
2022-09-06T18:52:46.010Z,3.05
2022-09-06T18:56:50.012Z,3.28
2022-09-06T19:00:53.064Z,3.08
2022-09-06T19:04:56.018Z,3.38
2022-09-06T19:09:01.638Z,3.00
2022-09-06T19:13:06.616Z,2.80
2022-09-06T19:17:09.842Z,3.25
2022-09-06T19:21:14.376Z,3.15
2022-09-06T19:25:19.412Z,3.20
2022-09-06T19:29:22.156Z,3.25
2022-09-06T19:37:28.583Z,2.70
2022-09-06T19:41:34.394Z,2.97
2022-09-06T19:45:39.250Z,3.05
2022-09-06T19:49:42.374Z,2.78
2022-09-06T19:53:49.515Z,2.80
2022-09-06T19:57:53.804Z,2.72
2022-09-06T20:01:56.499Z,2.83
2022-09-06T20:06:02.147Z,2.70
2022-09-06T20:10:06.503Z,2.80
2022-09-06T20:14:11.167Z,2.90
2022-09-06T20:18:14.758Z,2.70
2022-09-06T20:22:17.527Z,2.80
2022-09-06T20:26:22.858Z,2.50
2022-09-06T20:30:29.425Z,2.70
2022-09-06T20:34:32.297Z,2.47
2022-09-06T20:42:42.219Z,2.30
2022-09-06T20:46:46.592Z,2.42
2022-09-06T20:50:57.767Z,2.55
2022-09-06T20:55:00.549Z,2.50
2022-09-06T20:59:05.448Z,2.35
